createdAt,value
2023-06-26T00:00:33.766Z,65.00
2023-06-26T00:01:34.107Z,65.00
2023-06-26T00:02:34.598Z,65.00
2023-06-26T00:03:34.775Z,65.00
2023-06-26T00:04:35.084Z,65.00
2023-06-26T00:05:35.432Z,66.00
2023-06-26T00:06:35.773Z,65.00
2023-06-26T00:07:36.099Z,66.00
2023-06-26T00:08:36.453Z,65.00
2023-06-26T00:09:36.792Z,65.00
2023-06-26T00:10:37.450Z,66.00
2023-06-26T00:11:37.403Z,66.00
2023-06-26T00:12:37.739Z,66.00
2023-06-26T00:13:38.100Z,66.00
2023-06-26T00:14:38.430Z,65.00
2023-06-26T00:15:38.730Z,66.00
2023-06-26T00:16:39.053Z,65.00
2023-06-26T00:17:39.489Z,65.00
2023-06-26T00:18:39.652Z,66.00
2023-06-26T00:19:39.981Z,65.00
2023-06-26T00:20:40.642Z,65.00
2023-06-26T00:21:40.593Z,66.00
2023-06-26T00:22:40.898Z,65.00
2023-06-26T00:23:41.939Z,65.00
2023-06-26T00:24:41.479Z,66.00
2023-06-26T00:25:41.910Z,66.00
2023-06-26T00:26:42.082Z,66.00
2023-06-26T00:27:42.388Z,66.00
2023-06-26T00:28:42.714Z,66.00
2023-06-26T00:29:43.054Z,66.00
2023-06-26T00:30:43.385Z,66.00
2023-06-26T00:31:43.724Z,66.00
2023-06-26T00:32:44.168Z,66.00
2023-06-26T00:33:44.274Z,66.00
2023-06-26T00:34:44.603Z,66.00
2023-06-26T00:35:44.926Z,66.00
2023-06-26T00:36:45.289Z,67.00
2023-06-26T00:37:45.590Z,66.00
2023-06-26T00:38:45.935Z,66.00
2023-06-26T00:39:46.239Z,67.00
2023-06-26T00:40:46.577Z,67.00
2023-06-26T00:41:46.892Z,67.00
2023-06-26T00:42:47.248Z,67.00
2023-06-26T00:43:47.571Z,67.00
2023-06-26T00:44:47.888Z,67.00
2023-06-26T00:45:48.194Z,67.00
2023-06-26T00:46:48.510Z,67.00
2023-06-26T00:47:48.878Z,68.00
2023-06-26T00:48:49.228Z,67.00
2023-06-26T00:49:49.565Z,67.00
2023-06-26T00:50:49.903Z,67.00
2023-06-26T00:51:50.247Z,68.00
2023-06-26T00:52:50.604Z,67.00
2023-06-26T00:53:50.907Z,67.00
2023-06-26T00:54:51.227Z,67.00
2023-06-26T00:55:51.562Z,68.00
2023-06-26T00:56:51.887Z,68.00
2023-06-26T00:57:52.220Z,68.00
2023-06-26T00:58:52.517Z,67.00
2023-06-26T00:59:52.824Z,68.00
2023-06-26T01:00:53.142Z,67.00
2023-06-26T01:01:53.521Z,67.00
2023-06-26T01:02:54.015Z,67.00
2023-06-26T01:03:54.335Z,67.00
2023-06-26T01:04:54.487Z,68.00
2023-06-26T01:05:54.800Z,68.00
2023-06-26T01:06:55.199Z,68.00
2023-06-26T01:07:55.360Z,67.00
2023-06-26T01:08:55.723Z,67.00
2023-06-26T01:09:56.076Z,67.00
2023-06-26T01:10:56.377Z,67.00
2023-06-26T01:11:56.700Z,66.00
2023-06-26T01:12:57.023Z,67.00
2023-06-26T01:13:57.349Z,67.00
2023-06-26T01:14:57.711Z,68.00
2023-06-26T01:15:58.050Z,68.00
2023-06-26T01:16:58.356Z,68.00
2023-06-26T01:17:58.739Z,68.00
2023-06-26T01:18:59.040Z,68.00
2023-06-26T01:19:59.388Z,68.00
2023-06-26T01:20:59.684Z,67.00
2023-06-26T01:22:00.053Z,67.00
2023-06-26T01:23:00.360Z,67.00
2023-06-26T01:24:00.680Z,68.00
2023-06-26T01:25:00.997Z,68.00
2023-06-26T01:26:01.366Z,69.00
2023-06-26T01:27:01.674Z,68.00
2023-06-26T01:28:02.032Z,68.00
2023-06-26T01:29:02.368Z,69.00
2023-06-26T01:30:02.699Z,68.00
2023-06-26T01:31:03.004Z,68.00
2023-06-26T01:32:03.469Z,67.00
2023-06-26T01:33:03.677Z,68.00
2023-06-26T01:34:04.000Z,68.00
2023-06-26T01:35:04.304Z,68.00
2023-06-26T01:36:04.650Z,68.00
2023-06-26T01:37:04.960Z,69.00
2023-06-26T01:38:05.321Z,69.00
2023-06-26T01:39:05.654Z,68.00
2023-06-26T01:40:05.972Z,68.00
2023-06-26T01:41:06.282Z,68.00
2023-06-26T01:42:06.597Z,68.00
2023-06-26T01:43:06.934Z,68.00
2023-06-26T01:44:07.250Z,69.00
2023-06-26T01:45:07.583Z,69.00
2023-06-26T01:46:07.950Z,69.00
2023-06-26T01:47:08.253Z,69.00
2023-06-26T01:48:08.588Z,69.00
2023-06-26T01:49:08.934Z,69.00
2023-06-26T01:50:09.301Z,70.00
2023-06-26T01:51:09.619Z,69.00
2023-06-26T01:52:09.934Z,70.00
2023-06-26T01:53:10.248Z,69.00
2023-06-26T01:54:11.112Z,70.00
2023-06-26T01:55:10.874Z,70.00
2023-06-26T01:56:11.183Z,70.00
2023-06-26T01:57:11.576Z,70.00
2023-06-26T01:58:11.901Z,70.00
2023-06-26T01:59:12.210Z,70.00
2023-06-26T02:00:12.553Z,70.00
2023-06-26T02:01:12.943Z,70.00
2023-06-26T02:02:13.217Z,70.00
2023-06-26T02:03:13.571Z,70.00
2023-06-26T02:04:13.912Z,70.00
2023-06-26T02:05:14.294Z,70.00
2023-06-26T02:06:14.633Z,70.00
2023-06-26T02:07:15.019Z,70.00
2023-06-26T02:08:15.332Z,70.00
2023-06-26T02:09:15.661Z,70.00
2023-06-26T02:10:15.969Z,70.00
2023-06-26T02:11:16.290Z,69.00
2023-06-26T02:12:16.627Z,69.00
2023-06-26T02:13:16.939Z,70.00
2023-06-26T02:14:17.266Z,70.00
2023-06-26T02:15:17.612Z,71.00
2023-06-26T02:16:17.917Z,70.00
2023-06-26T02:17:18.274Z,70.00
2023-06-26T02:18:18.573Z,71.00
2023-06-26T02:19:18.923Z,71.00
2023-06-26T02:20:19.233Z,71.00
2023-06-26T02:21:19.561Z,71.00
2023-06-26T02:22:19.881Z,71.00
2023-06-26T02:23:20.250Z,71.00
2023-06-26T02:24:20.428Z,71.00
2023-06-26T02:25:20.745Z,71.00
2023-06-26T02:26:21.059Z,71.00
2023-06-26T02:27:21.390Z,71.00
2023-06-26T02:28:21.756Z,71.00
2023-06-26T02:29:22.083Z,71.00
2023-06-26T02:30:22.428Z,71.00
2023-06-26T02:31:22.847Z,71.00
2023-06-26T02:32:22.964Z,71.00
2023-06-26T02:33:23.263Z,71.00
2023-06-26T02:34:23.576Z,72.00
2023-06-26T02:35:23.911Z,71.00
2023-06-26T02:36:24.253Z,72.00
2023-06-26T02:37:24.540Z,72.00
2023-06-26T02:38:24.869Z,72.00
2023-06-26T02:39:25.168Z,72.00
2023-06-26T02:40:25.562Z,72.00
2023-06-26T02:41:25.678Z,71.00
2023-06-26T02:42:26.008Z,71.00
2023-06-26T02:43:26.315Z,72.00
2023-06-26T02:44:26.648Z,72.00
2023-06-26T02:45:26.988Z,72.00
2023-06-26T02:46:27.361Z,72.00
2023-06-26T02:47:32.051Z,72.00
2023-06-26T02:48:27.829Z,72.00
2023-06-26T02:49:28.185Z,72.00
2023-06-26T02:50:28.478Z,72.00
2023-06-26T02:51:28.810Z,72.00
2023-06-26T02:52:29.117Z,72.00
2023-06-26T02:53:29.434Z,72.00
2023-06-26T02:54:29.769Z,72.00
2023-06-26T02:55:30.106Z,72.00
2023-06-26T02:56:30.440Z,72.00
2023-06-26T02:57:30.781Z,72.00
2023-06-26T02:58:31.105Z,72.00
2023-06-26T02:59:31.443Z,72.00
2023-06-26T03:00:31.780Z,72.00
2023-06-26T03:01:32.254Z,72.00
2023-06-26T03:02:32.459Z,73.00
2023-06-26T03:03:32.772Z,73.00
2023-06-26T03:04:33.180Z,72.00
2023-06-26T03:05:33.299Z,73.00
2023-06-26T03:06:33.658Z,73.00
2023-06-26T03:07:33.986Z,73.00
2023-06-26T03:08:34.329Z,73.00
2023-06-26T03:09:34.639Z,73.00
2023-06-26T03:10:34.980Z,73.00
2023-06-26T03:11:35.271Z,73.00
2023-06-26T03:12:35.581Z,72.00
2023-06-26T03:13:35.920Z,72.00
2023-06-26T03:14:36.243Z,72.00
2023-06-26T03:15:36.568Z,72.00
2023-06-26T03:16:36.935Z,72.00
2023-06-26T03:17:37.303Z,72.00
2023-06-26T03:18:37.645Z,72.00
2023-06-26T03:19:37.985Z,73.00
2023-06-26T03:20:38.534Z,73.00
2023-06-26T03:21:38.592Z,73.00
2023-06-26T03:22:38.954Z,73.00
2023-06-26T03:23:39.251Z,73.00
2023-06-26T03:24:39.578Z,73.00
2023-06-26T03:25:39.886Z,73.00
2023-06-26T03:26:40.313Z,73.00
2023-06-26T03:27:40.429Z,73.00
2023-06-26T03:28:40.773Z,73.00
2023-06-26T03:29:41.083Z,73.00
2023-06-26T03:30:41.753Z,73.00
2023-06-26T03:31:41.582Z,73.00
2023-06-26T03:32:41.973Z,73.00
2023-06-26T03:33:42.285Z,73.00
2023-06-26T03:34:42.638Z,73.00
2023-06-26T03:35:42.953Z,73.00
2023-06-26T03:36:43.301Z,73.00
2023-06-26T03:37:43.630Z,73.00
2023-06-26T03:38:43.965Z,73.00
2023-06-26T03:39:44.281Z,73.00
2023-06-26T03:40:44.625Z,72.00
2023-06-26T03:41:44.975Z,72.00
2023-06-26T03:42:45.310Z,72.00
2023-06-26T03:43:45.618Z,72.00
2023-06-26T03:44:46.070Z,72.00
2023-06-26T03:45:46.233Z,73.00
2023-06-26T03:46:46.748Z,72.00
2023-06-26T03:47:46.889Z,72.00
2023-06-26T03:48:47.206Z,73.00
2023-06-26T03:49:47.576Z,73.00
2023-06-26T03:50:47.918Z,72.00
2023-06-26T03:51:48.252Z,72.00
2023-06-26T03:52:48.581Z,72.00
2023-06-26T03:53:48.895Z,73.00
2023-06-26T03:54:49.249Z,72.00
2023-06-26T03:55:49.573Z,72.00
2023-06-26T03:56:49.918Z,72.00
2023-06-26T03:57:50.278Z,72.00
2023-06-26T03:58:50.609Z,72.00
2023-06-26T03:59:50.923Z,72.00
2023-06-26T04:00:51.263Z,72.00
2023-06-26T04:01:53.400Z,72.00
2023-06-26T04:02:52.017Z,72.00
2023-06-26T04:03:52.366Z,72.00
2023-06-26T04:04:52.732Z,72.00
2023-06-26T04:05:53.062Z,72.00
2023-06-26T04:06:53.421Z,72.00
2023-06-26T04:07:53.729Z,73.00
2023-06-26T04:08:54.050Z,72.00
2023-06-26T04:09:54.506Z,72.00
2023-06-26T04:10:54.651Z,72.00
2023-06-26T04:11:54.991Z,72.00
2023-06-26T04:12:55.307Z,72.00
2023-06-26T04:13:55.647Z,72.00
2023-06-26T04:14:55.960Z,72.00
2023-06-26T04:15:56.269Z,72.00
2023-06-26T04:16:56.598Z,72.00
2023-06-26T04:17:56.988Z,72.00
2023-06-26T04:18:57.403Z,72.00
2023-06-26T04:19:57.608Z,72.00
2023-06-26T04:20:57.905Z,72.00
2023-06-26T04:21:58.257Z,72.00
2023-06-26T04:22:58.574Z,72.00
2023-06-26T04:23:58.901Z,72.00
2023-06-26T04:24:59.209Z,72.00
2023-06-26T04:25:59.532Z,72.00
2023-06-26T04:26:59.848Z,72.00
2023-06-26T04:28:00.197Z,72.00
2023-06-26T04:29:00.549Z,72.00
2023-06-26T04:30:00.884Z,72.00
2023-06-26T04:31:01.196Z,72.00
2023-06-26T04:32:01.554Z,71.00
2023-06-26T04:33:01.880Z,71.00
2023-06-26T04:34:02.228Z,71.00
2023-06-26T04:35:02.598Z,71.00
2023-06-26T04:36:02.923Z,70.00
2023-06-26T04:37:03.264Z,70.00
2023-06-26T04:38:03.637Z,70.00
2023-06-26T04:39:03.959Z,70.00
2023-06-26T04:40:04.274Z,71.00
2023-06-26T04:41:04.588Z,70.00
2023-06-26T04:42:04.918Z,70.00
2023-06-26T04:43:05.232Z,70.00
2023-06-26T04:44:05.575Z,70.00
2023-06-26T04:45:05.887Z,69.00
2023-06-26T04:46:06.208Z,69.00
2023-06-26T04:47:06.544Z,69.00
2023-06-26T04:48:06.848Z,69.00
2023-06-26T04:49:07.151Z,69.00
2023-06-26T04:50:07.479Z,69.00
2023-06-26T04:51:07.789Z,69.00
2023-06-26T04:52:08.161Z,69.00
2023-06-26T04:53:08.498Z,68.00
2023-06-26T04:54:08.804Z,68.00
2023-06-26T04:55:09.144Z,69.00
2023-06-26T04:56:09.457Z,69.00
2023-06-26T04:57:09.837Z,69.00
2023-06-26T04:58:10.159Z,69.00
2023-06-26T04:59:10.494Z,69.00
2023-06-26T05:00:10.818Z,69.00
2023-06-26T05:01:11.200Z,69.00
2023-06-26T05:02:11.395Z,69.00
2023-06-26T05:03:11.874Z,67.00
2023-06-26T05:04:12.021Z,66.00
2023-06-26T05:05:12.360Z,65.00
2023-06-26T05:06:12.658Z,65.00
